createdAt,value
2017-09-09T00:00:58.009Z,15.50
2017-09-09T00:03:25.520Z,15.40
2017-09-09T00:05:53.053Z,15.40
2017-09-09T00:08:20.563Z,15.40
2017-09-09T00:10:48.851Z,15.30
2017-09-09T00:13:17.129Z,15.30
2017-09-09T00:15:44.667Z,15.30
2017-09-09T00:18:12.181Z,15.30
2017-09-09T00:20:39.708Z,15.30
2017-09-09T00:23:07.980Z,15.30
2017-09-09T00:25:36.276Z,15.20
2017-09-09T00:28:03.781Z,15.30
2017-09-09T00:30:31.316Z,15.20
2017-09-09T00:32:58.825Z,15.20
2017-09-09T00:35:26.353Z,15.20
2017-09-09T00:37:53.864Z,15.20
2017-09-09T00:40:22.162Z,15.30
2017-09-09T00:42:49.665Z,15.20
2017-09-09T00:45:17.196Z,15.30
2017-09-09T00:47:44.700Z,15.30
2017-09-09T00:50:12.221Z,15.30
2017-09-09T00:52:39.737Z,15.30
2017-09-09T00:55:07.272Z,15.40
2017-09-09T00:57:34.782Z,15.40
2017-09-09T01:00:02.317Z,15.40
2017-09-09T01:02:29.838Z,15.50
2017-09-09T01:04:57.364Z,15.50
2017-09-09T01:07:24.869Z,15.40
2017-09-09T01:09:52.401Z,15.40
2017-09-09T01:12:19.915Z,15.40
2017-09-09T01:14:48.201Z,15.40
2017-09-09T01:17:15.708Z,15.50
2017-09-09T01:19:43.233Z,15.40
2017-09-09T01:22:10.749Z,15.40
2017-09-09T01:24:38.278Z,15.40
2017-09-09T01:27:05.790Z,15.40
2017-09-09T01:29:33.352Z,15.40
2017-09-09T01:32:00.856Z,15.50
2017-09-09T01:34:28.368Z,15.50
2017-09-09T01:36:55.893Z,15.50
2017-09-09T01:39:23.399Z,15.50
2017-09-09T01:41:50.964Z,15.50
2017-09-09T01:44:18.466Z,15.60
2017-09-09T01:46:45.988Z,15.60
2017-09-09T01:49:13.509Z,15.50
2017-09-09T01:51:41.814Z,15.60
2017-09-09T01:54:09.330Z,15.60
2017-09-09T01:56:36.852Z,15.60
2017-09-09T01:59:04.373Z,15.60
2017-09-09T02:01:31.905Z,15.60
2017-09-09T02:03:59.423Z,15.60
2017-09-09T02:06:26.951Z,15.60
2017-09-09T02:08:55.227Z,15.60
2017-09-09T02:11:23.524Z,15.60
2017-09-09T02:13:51.041Z,15.60
2017-09-09T02:16:18.563Z,15.60
2017-09-09T02:18:46.077Z,15.60
2017-09-09T02:21:13.608Z,15.70
2017-09-09T02:23:41.116Z,15.70
2017-09-09T02:26:08.649Z,15.70
2017-09-09T02:28:36.932Z,15.70
2017-09-09T02:31:05.221Z,15.80
2017-09-09T02:33:32.734Z,15.70
2017-09-09T02:36:00.258Z,15.70
2017-09-09T02:38:27.764Z,15.80
2017-09-09T02:40:55.284Z,15.80
2017-09-09T02:43:22.783Z,15.80
2017-09-09T02:45:50.319Z,15.80
2017-09-09T02:48:17.833Z,15.80
2017-09-09T02:50:45.366Z,15.80
2017-09-09T02:53:12.885Z,15.80
2017-09-09T02:55:40.413Z,15.90
2017-09-09T02:58:08.689Z,15.80
2017-09-09T03:00:36.981Z,15.90
2017-09-09T03:03:04.490Z,15.90
2017-09-09T03:05:32.014Z,15.80
2017-09-09T03:07:59.550Z,15.90
2017-09-09T03:10:27.057Z,15.90
2017-09-09T03:12:54.575Z,15.90
2017-09-09T03:15:22.093Z,15.80
2017-09-09T03:17:49.623Z,15.90
2017-09-09T03:20:17.136Z,15.90
2017-09-09T03:22:45.429Z,16.00
2017-09-09T03:25:12.937Z,16.00
2017-09-09T03:27:40.456Z,15.90
2017-09-09T03:30:07.965Z,15.90
2017-09-09T03:32:35.488Z,16.00
2017-09-09T03:35:02.992Z,16.00
2017-09-09T03:37:30.522Z,16.00
2017-09-09T03:39:58.041Z,16.00
2017-09-09T03:42:26.341Z,16.00
2017-09-09T03:44:53.848Z,15.90
2017-09-09T03:47:21.377Z,15.80
2017-09-09T03:49:48.902Z,15.60
2017-09-09T03:52:16.428Z,15.50
2017-09-09T03:54:43.933Z,15.50
2017-09-09T03:57:11.451Z,15.30
2017-09-09T03:59:38.962Z,15.20
2017-09-09T04:02:06.500Z,15.20
2017-09-09T04:04:34.008Z,15.20
2017-09-09T04:07:01.537Z,15.10
2017-09-09T04:09:29.055Z,15.10
2017-09-09T04:11:56.594Z,15.10
2017-09-09T04:14:24.114Z,15.10
2017-09-09T04:16:51.635Z,15.20
2017-09-09T04:19:19.905Z,15.30
2017-09-09T04:21:48.205Z,15.30
2017-09-09T04:24:15.724Z,15.30
2017-09-09T04:26:43.245Z,15.30
2017-09-09T04:29:10.748Z,15.30
2017-09-09T04:31:38.276Z,15.30
2017-09-09T04:34:05.795Z,15.40
2017-09-09T04:36:33.325Z,15.40
2017-09-09T04:39:00.852Z,15.40
2017-09-09T04:41:28.365Z,15.30
2017-09-09T04:43:55.897Z,15.40
2017-09-09T04:46:23.400Z,15.30
2017-09-09T04:48:50.930Z,15.30
2017-09-09T04:51:19.583Z,15.40
2017-09-09T04:53:47.107Z,15.30
2017-09-09T04:56:14.613Z,15.40
2017-09-09T04:58:42.144Z,15.40
2017-09-09T05:01:09.652Z,15.30
2017-09-09T05:03:37.177Z,15.40
2017-09-09T05:06:04.688Z,15.40
2017-09-09T05:08:32.989Z,15.30
2017-09-09T05:11:00.511Z,15.40
2017-09-09T05:13:28.039Z,15.40
2017-09-09T05:15:55.548Z,15.40
2017-09-09T05:18:23.845Z,15.50
2017-09-09T05:20:51.367Z,15.50
2017-09-09T05:23:18.887Z,15.50
2017-09-09T05:25:46.843Z,15.50
2017-09-09T05:28:14.387Z,15.50
2017-09-09T05:30:42.162Z,15.50
2017-09-09T05:33:10.456Z,15.60
2017-09-09T05:35:37.972Z,15.60
2017-09-09T05:38:05.509Z,15.50
2017-09-09T05:40:33.015Z,15.40
2017-09-09T05:43:01.302Z,15.60
2017-09-09T05:45:29.109Z,15.70
2017-09-09T05:47:56.682Z,15.70
2017-09-09T05:50:24.962Z,15.70
2017-09-09T05:52:52.483Z,15.70
2017-09-09T05:55:20.760Z,15.70
2017-09-09T05:57:49.891Z,15.80
2017-09-09T06:00:17.400Z,15.80
2017-09-09T06:02:44.925Z,15.90
2017-09-09T06:05:12.435Z,16.00
2017-09-09T06:07:40.728Z,16.00
2017-09-09T06:10:08.248Z,16.00
2017-09-09T06:12:35.795Z,16.00
2017-09-09T06:15:03.304Z,16.00
2017-09-09T06:17:30.811Z,16.00
2017-09-09T06:19:58.342Z,16.10
2017-09-09T06:22:25.862Z,16.10
2017-09-09T06:24:53.393Z,16.10
2017-09-09T06:27:20.915Z,16.20
2017-09-09T06:37:15.037Z,16.50
2017-09-09T06:39:42.569Z,16.40
2017-09-09T06:42:10.844Z,16.60
2017-09-09T06:44:38.363Z,16.50
2017-09-09T06:47:05.876Z,16.40
2017-09-09T06:49:34.164Z,16.50
2017-09-09T06:52:02.442Z,16.60
2017-09-09T06:54:29.973Z,16.60
2017-09-09T06:56:57.479Z,16.70
2017-09-09T06:59:25.007Z,16.80
2017-09-09T07:01:53.288Z,16.90
2017-09-09T07:04:20.824Z,16.90
2017-09-09T07:06:48.341Z,16.80
2017-09-09T07:09:15.878Z,16.80
2017-09-09T07:11:43.401Z,16.80
2017-09-09T07:14:10.921Z,16.70
2017-09-09T07:16:38.423Z,16.80
2017-09-09T07:19:05.953Z,16.90
2017-09-09T07:21:33.466Z,16.80
2017-09-09T07:24:01.764Z,16.80
2017-09-09T07:26:29.267Z,16.80
2017-09-09T07:28:56.788Z,16.70
2017-09-09T07:31:24.292Z,16.60
2017-09-09T07:33:51.821Z,16.50
2017-09-09T07:36:19.346Z,16.00
2017-09-09T07:38:46.872Z,16.30
2017-09-09T07:41:14.389Z,16.50
2017-09-09T07:43:41.923Z,16.50
2017-09-09T07:46:10.197Z,16.70
2017-09-09T07:48:38.482Z,16.50
2017-09-09T07:51:06.009Z,16.30
2017-09-09T07:53:34.656Z,16.40
2017-09-09T07:56:03.312Z,16.40
2017-09-09T07:58:30.820Z,16.20
2017-09-09T08:00:58.336Z,16.30
2017-09-09T08:03:25.867Z,16.20
2017-09-09T08:05:53.449Z,16.30
2017-09-09T08:08:20.956Z,16.30
2017-09-09T08:10:48.484Z,16.30
2017-09-09T08:13:16.769Z,15.90
2017-09-09T08:15:45.065Z,16.20
2017-09-09T08:18:12.591Z,16.20
2017-09-09T08:20:43.177Z,16.30
2017-09-09T08:23:10.693Z,16.20
2017-09-09T08:25:38.997Z,16.10
2017-09-09T08:28:06.512Z,16.00
2017-09-09T08:30:34.037Z,16.00
2017-09-09T08:33:01.548Z,16.00
2017-09-09T08:35:29.852Z,16.10
2017-09-09T08:37:57.366Z,15.90
2017-09-09T08:40:26.023Z,16.10
2017-09-09T08:42:53.545Z,16.10
2017-09-09T08:45:21.082Z,16.10
2017-09-09T08:47:49.375Z,16.40
2017-09-09T08:50:16.901Z,16.20
2017-09-09T08:52:44.406Z,16.30
2017-09-09T08:55:11.932Z,16.10
2017-09-09T08:57:40.221Z,16.30
2017-09-09T09:00:08.522Z,16.30
2017-09-09T09:02:36.037Z,16.30
2017-09-09T09:05:03.567Z,16.20
2017-09-09T09:07:31.086Z,16.20
2017-09-09T09:09:58.608Z,16.30
2017-09-09T09:12:26.113Z,16.10
2017-09-09T09:14:53.649Z,16.40
2017-09-09T09:17:21.925Z,16.80
2017-09-09T09:19:50.593Z,16.80
2017-09-09T09:22:18.096Z,16.70
2017-09-09T09:24:45.621Z,16.70
2017-09-09T09:27:14.269Z,16.90
2017-09-09T09:29:41.777Z,16.80
2017-09-09T09:32:10.059Z,17.10
2017-09-09T09:34:38.332Z,17.10
2017-09-09T09:37:06.620Z,17.00
2017-09-09T09:39:34.135Z,17.00
2017-09-09T09:42:03.608Z,16.90
2017-09-09T09:44:31.126Z,16.90
2017-09-09T09:46:59.415Z,16.90
2017-09-09T09:49:28.821Z,17.00
2017-09-09T09:51:57.124Z,17.10
2017-09-09T09:54:24.637Z,17.10
2017-09-09T09:56:52.157Z,17.00
2017-09-09T09:59:19.668Z,17.10
2017-09-09T10:01:47.204Z,17.20
2017-09-09T10:04:14.711Z,17.20
2017-09-09T10:06:42.244Z,17.10
2017-09-09T10:09:10.521Z,17.30
2017-09-09T10:11:38.830Z,17.40
2017-09-09T10:14:06.349Z,17.30
2017-09-09T10:16:34.652Z,17.40
2017-09-09T10:19:02.173Z,17.40
2017-09-09T10:21:29.692Z,17.60
2017-09-09T10:23:57.755Z,17.40
2017-09-09T10:26:25.288Z,17.50
2017-09-09T10:28:52.797Z,17.50
2017-09-09T10:31:20.317Z,17.60
2017-09-09T10:33:47.818Z,17.50
2017-09-09T10:36:15.336Z,17.40
2017-09-09T10:38:42.849Z,17.40
2017-09-09T10:41:10.382Z,17.40
2017-09-09T10:43:37.904Z,17.50
2017-09-09T10:46:06.203Z,17.60
2017-09-09T10:48:33.715Z,17.60
2017-09-09T10:51:01.242Z,17.60
2017-09-09T10:53:28.747Z,17.50
2017-09-09T10:55:57.036Z,17.50
2017-09-09T10:58:24.540Z,17.50
2017-09-09T11:00:52.065Z,17.30
2017-09-09T11:03:20.336Z,17.20
2017-09-09T11:10:45.601Z,17.50
2017-09-09T11:13:14.264Z,17.60
2017-09-09T11:15:42.531Z,17.50
2017-09-09T11:18:10.069Z,17.50
2017-09-09T11:20:37.580Z,17.50
2017-09-09T11:23:05.098Z,17.40
2017-09-09T11:25:32.600Z,17.50
2017-09-09T11:28:00.128Z,17.40
2017-09-09T11:30:27.645Z,17.40
2017-09-09T11:32:55.177Z,17.30
2017-09-09T11:35:22.680Z,17.30
2017-09-09T11:37:50.209Z,17.30
2017-09-09T11:40:17.717Z,17.10
2017-09-09T11:42:45.235Z,17.20
2017-09-09T11:45:12.741Z,17.20
2017-09-09T11:47:41.405Z,17.40
2017-09-09T11:50:08.912Z,17.30
2017-09-09T11:52:36.437Z,17.30
2017-09-09T11:55:03.948Z,17.00
2017-09-09T12:00:00.332Z,17.00
2017-09-09T12:02:29.021Z,17.20
2017-09-09T12:04:56.529Z,17.20
2017-09-09T12:07:25.540Z,17.20
2017-09-09T12:12:23.057Z,17.20
2017-09-09T12:14:50.584Z,17.20
2017-09-09T12:17:18.098Z,17.30
2017-09-09T12:19:45.629Z,17.20
2017-09-09T12:22:13.142Z,17.20
2017-09-09T12:24:40.678Z,17.20
2017-09-09T12:27:09.319Z,17.30
2017-09-09T12:29:36.854Z,17.30
2017-09-09T12:32:04.374Z,17.40
2017-09-09T12:34:32.668Z,17.50
2017-09-09T12:37:00.173Z,17.40
2017-09-09T12:39:27.752Z,17.40
2017-09-09T12:41:55.256Z,17.60
2017-09-09T12:44:22.780Z,17.60
2017-09-09T12:46:50.301Z,17.60
2017-09-09T12:49:17.828Z,17.50
2017-09-09T12:51:45.336Z,17.50
2017-09-09T12:54:12.871Z,17.40
2017-09-09T12:56:41.512Z,17.30
2017-09-09T12:59:09.033Z,17.10
2017-09-09T13:01:36.546Z,16.80
2017-09-09T13:04:04.842Z,16.50
2017-09-09T13:06:32.360Z,16.50
2017-09-09T13:08:59.904Z,16.50
2017-09-09T13:11:27.436Z,16.70
2017-09-09T13:13:54.945Z,16.30
2017-09-09T13:16:22.468Z,16.50
2017-09-09T13:18:49.975Z,16.60
2017-09-09T13:21:17.520Z,16.70
2017-09-09T13:23:45.029Z,16.80
2017-09-09T13:26:13.435Z,16.80
2017-09-09T13:28:40.944Z,16.80
2017-09-09T13:31:08.477Z,16.80
2017-09-09T13:33:35.994Z,16.80
2017-09-09T13:36:03.553Z,16.80
2017-09-09T13:38:31.082Z,16.80
2017-09-09T13:40:58.608Z,16.90
2017-09-09T13:43:26.130Z,17.00
2017-09-09T13:45:53.660Z,17.10
2017-09-09T13:48:21.927Z,17.00
2017-09-09T13:50:50.216Z,17.10
2017-09-09T13:53:17.726Z,17.10
2017-09-09T13:55:45.276Z,17.10
2017-09-09T13:58:12.779Z,17.10
2017-09-09T14:00:41.074Z,17.20
2017-09-09T14:03:08.588Z,17.20
2017-09-09T14:05:36.109Z,17.30
2017-09-09T14:08:03.621Z,17.40
2017-09-09T14:10:31.149Z,17.40
2017-09-09T14:12:58.660Z,17.40
2017-09-09T14:15:26.957Z,17.40
2017-09-09T14:17:54.480Z,17.40
2017-09-09T14:20:21.989Z,17.40
2017-09-09T14:22:49.516Z,17.40
2017-09-09T14:25:17.023Z,17.30
2017-09-09T14:27:44.548Z,17.40
2017-09-09T14:30:12.051Z,17.30
2017-09-09T14:32:39.587Z,17.50
2017-09-09T14:37:36.723Z,17.70
2017-09-09T14:40:05.003Z,17.90
2017-09-09T14:42:33.664Z,18.00
2017-09-09T14:54:57.449Z,18.20
2017-09-09T14:57:24.972Z,18.30
2017-09-09T14:59:52.482Z,18.30
2017-09-09T15:02:19.997Z,18.30
2017-09-09T15:07:16.385Z,18.20
2017-09-09T15:09:43.918Z,18.50
2017-09-09T15:14:40.301Z,18.80
2017-09-09T15:17:07.816Z,18.60
2017-09-09T16:01:46.155Z,18.20
2017-09-09T16:04:13.665Z,18.10
2017-09-09T16:06:41.197Z,18.00
2017-09-09T16:09:08.708Z,17.90
2017-09-09T16:11:37.001Z,17.90
2017-09-09T16:21:31.115Z,17.80
2017-09-09T16:28:56.361Z,17.60
2017-09-09T16:31:24.649Z,17.50
2017-09-09T16:33:52.169Z,17.50
2017-09-09T16:36:22.416Z,17.60
2017-09-09T16:38:49.950Z,17.50
2017-09-09T16:41:17.465Z,17.50
2017-09-09T16:43:44.992Z,17.40
2017-09-09T16:46:13.271Z,17.50
2017-09-09T16:48:40.802Z,17.50
2017-09-09T16:51:08.307Z,17.50
2017-09-09T16:53:36.977Z,17.20
2017-09-09T16:56:04.528Z,17.30
2017-09-09T16:58:33.188Z,16.90
2017-09-09T17:01:00.697Z,17.30
2017-09-09T17:03:28.226Z,17.30
2017-09-09T17:05:56.881Z,17.20
2017-09-09T17:08:24.414Z,17.30
2017-09-09T17:10:51.925Z,17.20
2017-09-09T17:13:19.444Z,17.10
2017-09-09T17:15:48.094Z,17.00
2017-09-09T17:20:44.476Z,17.00
2017-09-09T17:28:09.713Z,17.00
2017-09-09T17:30:37.219Z,16.90
2017-09-09T17:33:04.739Z,16.80
2017-09-09T17:35:32.272Z,16.80
2017-09-09T17:50:24.181Z,16.70
2017-09-09T17:52:51.684Z,16.60
2017-09-09T18:10:13.191Z,16.50
2017-09-09T18:12:40.700Z,16.60
2017-09-09T18:15:08.220Z,16.50
2017-09-09T18:25:02.376Z,16.60
2017-09-09T18:27:29.886Z,16.50
2017-09-09T18:29:57.421Z,16.50
2017-09-09T18:32:25.710Z,16.50
2017-09-09T18:34:54.000Z,16.50
2017-09-09T18:37:21.506Z,16.50
2017-09-09T18:39:49.038Z,16.50
2017-09-09T18:42:16.545Z,16.50
2017-09-09T18:44:44.069Z,16.40
2017-09-09T18:47:11.587Z,16.40
2017-09-09T18:49:39.117Z,16.40
2017-09-09T18:52:06.631Z,16.40
2017-09-09T18:54:34.156Z,16.40
2017-09-09T18:57:02.428Z,16.40
2017-09-09T18:59:29.948Z,16.40
2017-09-09T19:01:57.470Z,16.40
2017-09-09T19:04:24.992Z,16.40
2017-09-09T19:06:52.497Z,16.40
2017-09-09T19:09:20.026Z,16.40
2017-09-09T19:11:47.546Z,16.30
2017-09-09T19:14:16.213Z,16.30
2017-09-09T19:16:43.730Z,16.30
2017-09-09T19:19:12.000Z,16.30
2017-09-09T19:21:39.524Z,16.30
2017-09-09T19:24:07.035Z,16.30
2017-09-09T19:26:35.323Z,16.40
2017-09-09T19:29:02.827Z,16.30
2017-09-09T19:31:30.348Z,16.30
2017-09-09T19:33:57.855Z,16.20
2017-09-09T19:36:25.379Z,16.30
2017-09-09T19:38:52.884Z,16.20
2017-09-09T19:41:20.408Z,16.30
2017-09-09T19:43:47.919Z,16.20
2017-09-09T19:46:16.209Z,16.30
2017-09-09T19:48:44.488Z,16.30
2017-09-09T19:51:12.447Z,16.20
2017-09-09T19:53:40.174Z,16.20
2017-09-09T19:56:07.699Z,16.30
2017-09-09T19:58:35.213Z,16.20
2017-09-09T20:01:02.741Z,16.20
2017-09-09T20:03:30.246Z,16.20
2017-09-09T20:05:58.536Z,16.20
2017-09-09T20:08:26.819Z,16.20
2017-09-09T20:10:55.136Z,16.20
2017-09-09T20:13:22.660Z,16.20
2017-09-09T20:15:50.188Z,16.30
2017-09-09T20:18:17.693Z,16.20
2017-09-09T20:20:45.222Z,16.10
2017-09-09T20:23:13.484Z,16.10
2017-09-09T20:25:42.528Z,16.10
2017-09-09T20:28:10.032Z,16.20
2017-09-09T20:30:37.561Z,16.10
2017-09-09T20:33:05.082Z,16.10
2017-09-09T20:35:32.613Z,16.10
2017-09-09T20:38:00.125Z,16.20
2017-09-09T20:40:27.654Z,16.10
2017-09-09T20:42:55.933Z,16.10
2017-09-09T20:45:24.230Z,16.10
2017-09-09T20:47:51.744Z,16.10
2017-09-09T20:50:19.274Z,16.00
2017-09-09T20:52:46.820Z,16.10
2017-09-09T20:55:14.337Z,16.00
2017-09-09T20:57:42.638Z,16.10
2017-09-09T21:00:10.144Z,16.00
2017-09-09T21:05:06.521Z,16.10
2017-09-09T22:56:52.587Z,15.70
2017-09-09T22:59:20.722Z,15.60
2017-09-09T23:01:48.248Z,15.60
2017-09-09T23:04:16.502Z,15.70
2017-09-09T23:06:44.043Z,15.70
2017-09-09T23:09:11.568Z,15.70
2017-09-09T23:11:39.628Z,15.60
2017-09-09T23:14:07.690Z,15.70
2017-09-09T23:16:35.937Z,15.70
2017-09-09T23:19:03.470Z,15.50
2017-09-09T23:21:31.099Z,15.70
2017-09-09T23:23:58.625Z,15.60
2017-09-09T23:26:26.135Z,15.50
2017-09-09T23:28:54.421Z,15.50
2017-09-09T23:31:21.924Z,15.50
2017-09-09T23:33:50.132Z,15.40
2017-09-09T23:36:17.640Z,15.40
2017-09-09T23:38:45.383Z,15.50
2017-09-09T23:41:12.889Z,15.40
